sensor_id;sensor_type;location;lat;lon;timestamp;P1;durP1;ratioP1;P2;durP2;ratioP2
42146;SDS011;27815;43.410;11.852;2023-01-04T00:00:12;19.60;;;13.15;;
42146;SDS011;27815;43.410;11.852;2023-01-04T00:04:15;22.73;;;12.82;;
42146;SDS011;27815;43.410;11.852;2023-01-04T00:08:18;20.38;;;12.88;;
42146;SDS011;27815;43.410;11.852;2023-01-04T00:12:21;21.13;;;13.40;;
42146;SDS011;27815;43.410;11.852;2023-01-04T00:16:25;23.33;;;13.75;;
42146;SDS011;27815;43.410;11.852;2023-01-04T00:20:29;20.83;;;13.48;;
42146;SDS011;27815;43.410;11.852;2023-01-04T00:24:32;23.65;;;14.88;;
42146;SDS011;27815;43.410;11.852;2023-01-04T00:28:35;24.52;;;15.02;;
42146;SDS011;27815;43.410;11.852;2023-01-04T00:32:38;30.45;;;16.92;;
42146;SDS011;27815;43.410;11.852;2023-01-04T00:36:41;24.92;;;17.02;;
42146;SDS011;27815;43.410;11.852;2023-01-04T00:40:44;33.15;;;22.27;;
42146;SDS011;27815;43.410;11.852;2023-01-04T00:44:47;37.88;;;23.40;;
42146;SDS011;27815;43.410;11.852;2023-01-04T00:48:50;39.95;;;24.67;;
42146;SDS011;27815;43.410;11.852;2023-01-04T00:52:59;53.40;;;32.50;;
42146;SDS011;27815;43.410;11.852;2023-01-04T00:57:03;46.35;;;28.33;;
42146;SDS011;27815;43.410;11.852;2023-01-04T01:01:07;34.03;;;21.05;;
42146;SDS011;27815;43.410;11.852;2023-01-04T01:05:10;30.02;;;19.58;;
42146;SDS011;27815;43.410;11.852;2023-01-04T01:09:13;34.20;;;20.80;;
42146;SDS011;27815;43.410;11.852;2023-01-04T01:13:16;32.05;;;19.83;;
42146;SDS011;27815;43.410;11.852;2023-01-04T01:17:19;32.10;;;19.70;;
42146;SDS011;27815;43.410;11.852;2023-01-04T01:21:23;35.97;;;23.25;;
42146;SDS011;27815;43.410;11.852;2023-01-04T01:25:28;42.97;;;28.47;;
42146;SDS011;27815;43.410;11.852;2023-01-04T01:29:34;52.92;;;33.45;;
42146;SDS011;27815;43.410;11.852;2023-01-04T01:33:37;60.70;;;35.55;;
42146;SDS011;27815;43.410;11.852;2023-01-04T01:37:41;49.22;;;29.52;;
42146;SDS011;27815;43.410;11.852;2023-01-04T01:41:43;41.60;;;26.30;;
42146;SDS011;27815;43.410;11.852;2023-01-04T01:45:47;39.45;;;26.27;;
42146;SDS011;27815;43.410;11.852;2023-01-04T01:49:53;44.50;;;29.00;;
42146;SDS011;27815;43.410;11.852;2023-01-04T01:54:00;39.90;;;25.17;;
42146;SDS011;27815;43.410;11.852;2023-01-04T01:58:06;35.58;;;24.48;;
42146;SDS011;27815;43.410;11.852;2023-01-04T02:02:12;39.65;;;26.50;;
42146;SDS011;27815;43.410;11.852;2023-01-04T02:06:23;37.63;;;23.25;;
42146;SDS011;27815;43.410;11.852;2023-01-04T02:10:33;35.38;;;22.05;;
42146;SDS011;27815;43.410;11.852;2023-01-04T02:14:39;34.28;;;22.80;;
42146;SDS011;27815;43.410;11.852;2023-01-04T02:18:53;36.80;;;21.98;;
42146;SDS011;27815;43.410;11.852;2023-01-04T02:35:46;33.95;;;17.23;;
42146;SDS011;27815;43.410;11.852;2023-01-04T02:44:27;30.17;;;19.23;;
42146;SDS011;27815;43.410;11.852;2023-01-04T02:48:57;24.17;;;16.83;;
42146;SDS011;27815;43.410;11.852;2023-01-04T02:53:27;26.38;;;15.95;;
42146;SDS011;27815;43.410;11.852;2023-01-04T03:11:21;41.05;;;22.73;;
42146;SDS011;27815;43.410;11.852;2023-01-04T03:15:53;108.55;;;28.60;;
42146;SDS011;27815;43.410;11.852;2023-01-04T03:20:03;76.82;;;23.52;;
42146;SDS011;27815;43.410;11.852;2023-01-04T03:24:08;136.85;;;29.17;;
42146;SDS011;27815;43.410;11.852;2023-01-04T03:28:32;122.57;;;27.80;;
42146;SDS011;27815;43.410;11.852;2023-01-04T03:32:58;134.17;;;28.43;;
42146;SDS011;27815;43.410;11.852;2023-01-04T03:37:34;104.53;;;27.75;;
42146;SDS011;27815;43.410;11.852;2023-01-04T03:42:13;151.82;;;29.50;;
42146;SDS011;27815;43.410;11.852;2023-01-04T03:46:46;129.18;;;29.70;;
42146;SDS011;27815;43.410;11.852;2023-01-04T03:51:14;183.98;;;29.15;;
42146;SDS011;27815;43.410;11.852;2023-01-04T03:55:24;95.05;;;23.55;;
42146;SDS011;27815;43.410;11.852;2023-01-04T04:03:36;98.60;;;24.27;;
42146;SDS011;27815;43.410;11.852;2023-01-04T04:07:58;148.00;;;26.23;;
42146;SDS011;27815;43.410;11.852;2023-01-04T04:12:19;170.15;;;25.65;;
42146;SDS011;27815;43.410;11.852;2023-01-04T04:16:22;83.32;;;20.75;;
42146;SDS011;27815;43.410;11.852;2023-01-04T04:20:26;132.50;;;24.63;;
42146;SDS011;27815;43.410;11.852;2023-01-04T04:24:29;126.05;;;28.35;;
42146;SDS011;27815;43.410;11.852;2023-01-04T04:28:32;100.75;;;27.73;;
42146;SDS011;27815;43.410;11.852;2023-01-04T04:32:35;119.00;;;29.83;;
42146;SDS011;27815;43.410;11.852;2023-01-04T04:36:38;219.93;;;33.78;;
42146;SDS011;27815;43.410;11.852;2023-01-04T04:40:41;158.25;;;30.63;;
42146;SDS011;27815;43.410;11.852;2023-01-04T04:45:03;241.50;;;33.63;;
42146;SDS011;27815;43.410;11.852;2023-01-04T04:49:07;142.68;;;32.03;;
42146;SDS011;27815;43.410;11.852;2023-01-04T04:53:11;33.75;;;22.48;;
42146;SDS011;27815;43.410;11.852;2023-01-04T04:57:13;34.55;;;22.50;;
42146;SDS011;27815;43.410;11.852;2023-01-04T05:01:16;37.72;;;23.60;;
42146;SDS011;27815;43.410;11.852;2023-01-04T05:05:20;37.75;;;21.10;;
42146;SDS011;27815;43.410;11.852;2023-01-04T05:09:22;39.08;;;22.45;;
42146;SDS011;27815;43.410;11.852;2023-01-04T05:13:26;36.25;;;20.92;;
42146;SDS011;27815;43.410;11.852;2023-01-04T05:17:29;39.40;;;21.67;;
42146;SDS011;27815;43.410;11.852;2023-01-04T05:21:32;32.63;;;21.42;;
42146;SDS011;27815;43.410;11.852;2023-01-04T05:25:35;39.13;;;23.52;;
42146;SDS011;27815;43.410;11.852;2023-01-04T05:29:38;37.50;;;24.92;;
42146;SDS011;27815;43.410;11.852;2023-01-04T05:33:59;36.92;;;23.70;;
42146;SDS011;27815;43.410;11.852;2023-01-04T05:38:02;60.30;;;28.17;;
42146;SDS011;27815;43.410;11.852;2023-01-04T05:42:05;151.48;;;33.47;;
42146;SDS011;27815;43.410;11.852;2023-01-04T05:46:27;72.03;;;30.92;;
42146;SDS011;27815;43.410;11.852;2023-01-04T05:50:30;130.30;;;30.60;;
42146;SDS011;27815;43.410;11.852;2023-01-04T05:54:40;164.02;;;33.42;;
42146;SDS011;27815;43.410;11.852;2023-01-04T05:58:43;116.65;;;29.88;;
42146;SDS011;27815;43.410;11.852;2023-01-04T06:02:46;126.43;;;33.13;;
42146;SDS011;27815;43.410;11.852;2023-01-04T06:06:49;91.82;;;30.77;;
42146;SDS011;27815;43.410;11.852;2023-01-04T06:10:55;123.95;;;35.30;;
42146;SDS011;27815;43.410;11.852;2023-01-04T06:21:35;79.18;;;31.75;;
42146;SDS011;27815;43.410;11.852;2023-01-04T06:25:38;54.42;;;30.67;;
42146;SDS011;27815;43.410;11.852;2023-01-04T06:29:41;67.78;;;32.83;;
42146;SDS011;27815;43.410;11.852;2023-01-04T06:33:44;69.78;;;31.08;;
42146;SDS011;27815;43.410;11.852;2023-01-04T06:37:46;55.22;;;30.75;;
42146;SDS011;27815;43.410;11.852;2023-01-04T06:41:49;67.45;;;31.70;;
42146;SDS011;27815;43.410;11.852;2023-01-04T06:45:52;164.45;;;33.42;;
42146;SDS011;27815;43.410;11.852;2023-01-04T06:49:55;166.60;;;33.03;;
42146;SDS011;27815;43.410;11.852;2023-01-04T06:53:58;142.75;;;34.33;;
42146;SDS011;27815;43.410;11.852;2023-01-04T06:58:01;121.28;;;32.15;;
42146;SDS011;27815;43.410;11.852;2023-01-04T07:02:04;123.57;;;34.00;;
42146;SDS011;27815;43.410;11.852;2023-01-04T07:06:07;149.30;;;34.33;;
42146;SDS011;27815;43.410;11.852;2023-01-04T07:10:11;133.07;;;34.60;;
42146;SDS011;27815;43.410;11.852;2023-01-04T07:14:14;80.05;;;29.65;;
42146;SDS011;27815;43.410;11.852;2023-01-04T07:18:17;143.02;;;33.78;;
42146;SDS011;27815;43.410;11.852;2023-01-04T07:22:20;95.20;;;27.95;;
42146;SDS011;27815;43.410;11.852;2023-01-04T07:26:22;115.78;;;29.15;;
42146;SDS011;27815;43.410;11.852;2023-01-04T07:30:26;163.00;;;34.95;;
42146;SDS011;27815;43.410;11.852;2023-01-04T07:34:29;108.63;;;31.02;;
42146;SDS011;27815;43.410;11.852;2023-01-04T07:38:32;148.73;;;33.40;;
42146;SDS011;27815;43.410;11.852;2023-01-04T07:42:36;140.02;;;33.47;;
42146;SDS011;27815;43.410;11.852;2023-01-04T07:46:39;148.70;;;33.25;;
42146;SDS011;27815;43.410;11.852;2023-01-04T07:50:44;221.50;;;36.05;;
42146;SDS011;27815;43.410;11.852;2023-01-04T07:54:49;114.07;;;34.47;;
42146;SDS011;27815;43.410;11.852;2023-01-04T07:58:52;102.60;;;30.70;;
42146;SDS011;27815;43.410;11.852;2023-01-04T08:03:00;99.85;;;33.20;;
42146;SDS011;27815;43.410;11.852;2023-01-04T08:07:02;115.82;;;33.63;;
42146;SDS011;27815;43.410;11.852;2023-01-04T08:11:07;115.80;;;37.28;;
42146;SDS011;27815;43.410;11.852;2023-01-04T08:15:15;154.57;;;39.20;;
42146;SDS011;27815;43.410;11.852;2023-01-04T08:19:19;78.32;;;31.25;;
42146;SDS011;27815;43.410;11.852;2023-01-04T08:23:22;117.00;;;31.90;;
42146;SDS011;27815;43.410;11.852;2023-01-04T08:27:27;109.05;;;32.83;;
42146;SDS011;27815;43.410;11.852;2023-01-04T08:31:30;116.20;;;37.38;;
42146;SDS011;27815;43.410;11.852;2023-01-04T08:35:34;89.85;;;33.63;;
42146;SDS011;27815;43.410;11.852;2023-01-04T08:39:37;84.07;;;33.75;;
42146;SDS011;27815;43.410;11.852;2023-01-04T08:43:49;92.35;;;35.15;;
42146;SDS011;27815;43.410;11.852;2023-01-04T08:47:52;122.72;;;33.40;;
42146;SDS011;27815;43.410;11.852;2023-01-04T08:51:55;130.85;;;36.08;;
42146;SDS011;27815;43.410;11.852;2023-01-04T08:56:00;82.57;;;31.20;;
42146;SDS011;27815;43.410;11.852;2023-01-04T09:00:03;108.95;;;37.92;;
42146;SDS011;27815;43.410;11.852;2023-01-04T09:04:07;74.30;;;33.85;;
42146;SDS011;27815;43.410;11.852;2023-01-04T09:08:11;86.43;;;35.45;;
42146;SDS011;27815;43.410;11.852;2023-01-04T09:12:14;136.65;;;40.63;;
42146;SDS011;27815;43.410;11.852;2023-01-04T09:16:18;90.75;;;39.55;;
42146;SDS011;27815;43.410;11.852;2023-01-04T09:20:21;84.18;;;37.70;;
42146;SDS011;27815;43.410;11.852;2023-01-04T09:24:24;73.63;;;35.00;;
42146;SDS011;27815;43.410;11.852;2023-01-04T09:28:27;81.72;;;37.45;;
42146;SDS011;27815;43.410;11.852;2023-01-04T09:32:30;77.85;;;37.05;;
42146;SDS011;27815;43.410;11.852;2023-01-04T09:36:33;99.68;;;34.97;;
42146;SDS011;27815;43.410;11.852;2023-01-04T09:40:49;67.07;;;33.58;;
42146;SDS011;27815;43.410;11.852;2023-01-04T09:45:15;126.40;;;39.43;;
42146;SDS011;27815;43.410;11.852;2023-01-04T09:53:53;72.97;;;32.92;;
42146;SDS011;27815;43.410;11.852;2023-01-04T09:58:07;66.72;;;32.85;;
42146;SDS011;27815;43.410;11.852;2023-01-04T10:02:45;59.45;;;31.25;;
42146;SDS011;27815;43.410;11.852;2023-01-04T10:06:51;60.10;;;31.00;;
42146;SDS011;27815;43.410;11.852;2023-01-04T10:33:11;61.65;;;32.75;;
42146;SDS011;27815;43.410;11.852;2023-01-04T10:37:24;75.32;;;40.15;;
42146;SDS011;27815;43.410;11.852;2023-01-04T10:41:33;103.70;;;50.83;;
42146;SDS011;27815;43.410;11.852;2023-01-04T10:45:42;71.10;;;36.17;;
42146;SDS011;27815;43.410;11.852;2023-01-04T10:49:52;75.25;;;37.53;;
42146;SDS011;27815;43.410;11.852;2023-01-04T10:54:05;75.85;;;35.92;;
42146;SDS011;27815;43.410;11.852;2023-01-04T11:07:20;55.42;;;29.33;;
42146;SDS011;27815;43.410;11.852;2023-01-04T11:12:02;50.30;;;25.27;;
42146;SDS011;27815;43.410;11.852;2023-01-04T11:15:58;48.35;;;22.98;;
42146;SDS011;27815;43.410;11.852;2023-01-04T11:20:02;48.20;;;24.85;;
42146;SDS011;27815;43.410;11.852;2023-01-04T11:24:06;51.10;;;23.98;;
42146;SDS011;27815;43.410;11.852;2023-01-04T11:28:50;41.65;;;22.50;;
42146;SDS011;27815;43.410;11.852;2023-01-04T11:32:57;50.55;;;23.98;;
42146;SDS011;27815;43.410;11.852;2023-01-04T11:41:36;46.50;;;22.70;;
42146;SDS011;27815;43.410;11.852;2023-01-04T11:45:39;40.90;;;23.40;;
42146;SDS011;27815;43.410;11.852;2023-01-04T11:49:53;46.17;;;22.90;;
42146;SDS011;27815;43.410;11.852;2023-01-04T11:58:11;44.72;;;22.77;;
42146;SDS011;27815;43.410;11.852;2023-01-04T12:02:21;41.25;;;21.45;;
42146;SDS011;27815;43.410;11.852;2023-01-04T12:10:53;39.90;;;22.73;;
42146;SDS011;27815;43.410;11.852;2023-01-04T12:15:05;44.08;;;24.85;;
42146;SDS011;27815;43.410;11.852;2023-01-04T12:19:16;48.33;;;25.33;;
42146;SDS011;27815;43.410;11.852;2023-01-04T12:23:20;47.00;;;25.08;;
42146;SDS011;27815;43.410;11.852;2023-01-04T12:27:23;49.70;;;25.98;;
42146;SDS011;27815;43.410;11.852;2023-01-04T12:31:27;49.42;;;26.77;;
42146;SDS011;27815;43.410;11.852;2023-01-04T12:35:56;52.70;;;27.53;;
42146;SDS011;27815;43.410;11.852;2023-01-04T12:40:03;51.25;;;28.85;;
42146;SDS011;27815;43.410;11.852;2023-01-04T12:48:48;53.38;;;28.77;;
42146;SDS011;27815;43.410;11.852;2023-01-04T12:53:06;49.80;;;27.85;;
42146;SDS011;27815;43.410;11.852;2023-01-04T12:57:35;46.67;;;26.10;;
42146;SDS011;27815;43.410;11.852;2023-01-04T13:01:39;49.65;;;26.92;;
42146;SDS011;27815;43.410;11.852;2023-01-04T13:06:22;51.45;;;28.10;;
42146;SDS011;27815;43.410;11.852;2023-01-04T13:14:55;47.17;;;24.30;;
42146;SDS011;27815;43.410;11.852;2023-01-04T13:19:16;44.92;;;25.17;;
42146;SDS011;27815;43.410;11.852;2023-01-04T13:23:24;50.45;;;27.00;;
42146;SDS011;27815;43.410;11.852;2023-01-04T13:27:28;51.20;;;26.58;;
42146;SDS011;27815;43.410;11.852;2023-01-04T13:31:30;50.40;;;26.52;;
42146;SDS011;27815;43.410;11.852;2023-01-04T13:35:34;65.63;;;27.17;;
42146;SDS011;27815;43.410;11.852;2023-01-04T13:39:37;47.88;;;25.95;;
42146;SDS011;27815;43.410;11.852;2023-01-04T13:47:54;44.13;;;24.70;;
42146;SDS011;27815;43.410;11.852;2023-01-04T13:52:12;47.65;;;25.23;;
42146;SDS011;27815;43.410;11.852;2023-01-04T13:56:44;47.85;;;25.73;;
42146;SDS011;27815;43.410;11.852;2023-01-04T14:01:11;44.85;;;24.20;;
42146;SDS011;27815;43.410;11.852;2023-01-04T14:05:16;41.50;;;23.58;;
42146;SDS011;27815;43.410;11.852;2023-01-04T14:09:21;71.30;;;25.60;;
42146;SDS011;27815;43.410;11.852;2023-01-04T14:13:32;82.55;;;25.90;;
42146;SDS011;27815;43.410;11.852;2023-01-04T14:17:47;78.75;;;26.15;;
42146;SDS011;27815;43.410;11.852;2023-01-04T14:21:52;85.25;;;24.58;;
42146;SDS011;27815;43.410;11.852;2023-01-04T14:25:55;67.75;;;27.85;;
42146;SDS011;27815;43.410;11.852;2023-01-04T14:29:58;57.97;;;25.70;;
42146;SDS011;27815;43.410;11.852;2023-01-04T14:34:03;82.18;;;25.75;;
42146;SDS011;27815;43.410;11.852;2023-01-04T14:38:11;62.38;;;28.58;;
42146;SDS011;27815;43.410;11.852;2023-01-04T14:42:26;96.60;;;28.52;;
42146;SDS011;27815;43.410;11.852;2023-01-04T14:46:32;139.77;;;33.67;;
42146;SDS011;27815;43.410;11.852;2023-01-04T14:50:35;204.32;;;32.28;;
42146;SDS011;27815;43.410;11.852;2023-01-04T14:54:38;104.80;;;26.65;;
42146;SDS011;27815;43.410;11.852;2023-01-04T14:58:41;120.10;;;25.77;;
42146;SDS011;27815;43.410;11.852;2023-01-04T15:02:45;246.20;;;32.92;;
42146;SDS011;27815;43.410;11.852;2023-01-04T15:06:56;218.40;;;31.58;;
42146;SDS011;27815;43.410;11.852;2023-01-04T15:11:00;316.92;;;36.03;;
42146;SDS011;27815;43.410;11.852;2023-01-04T15:15:03;244.13;;;34.25;;
42146;SDS011;27815;43.410;11.852;2023-01-04T15:19:07;263.83;;;31.98;;
42146;SDS011;27815;43.410;11.852;2023-01-04T15:23:10;239.73;;;32.45;;
42146;SDS011;27815;43.410;11.852;2023-01-04T15:27:12;65.60;;;23.75;;
42146;SDS011;27815;43.410;11.852;2023-01-04T15:31:15;140.40;;;29.15;;
42146;SDS011;27815;43.410;11.852;2023-01-04T15:35:27;313.95;;;34.70;;
42146;SDS011;27815;43.410;11.852;2023-01-04T15:39:29;361.90;;;43.63;;
42146;SDS011;27815;43.410;11.852;2023-01-04T15:43:33;284.02;;;36.95;;
42146;SDS011;27815;43.410;11.852;2023-01-04T15:47:37;260.90;;;29.83;;
42146;SDS011;27815;43.410;11.852;2023-01-04T15:51:40;429.98;;;45.53;;
42146;SDS011;27815;43.410;11.852;2023-01-04T15:55:43;312.77;;;34.70;;
42146;SDS011;27815;43.410;11.852;2023-01-04T15:59:46;453.05;;;40.50;;
42146;SDS011;27815;43.410;11.852;2023-01-04T16:03:50;372.35;;;39.20;;
42146;SDS011;27815;43.410;11.852;2023-01-04T16:07:55;175.48;;;27.92;;
42146;SDS011;27815;43.410;11.852;2023-01-04T16:11:58;170.63;;;27.85;;
42146;SDS011;27815;43.410;11.852;2023-01-04T16:16:20;322.48;;;35.58;;
42146;SDS011;27815;43.410;11.852;2023-01-04T16:20:24;384.48;;;37.28;;
42146;SDS011;27815;43.410;11.852;2023-01-04T16:24:27;316.85;;;36.75;;
42146;SDS011;27815;43.410;11.852;2023-01-04T16:28:50;357.30;;;76.80;;
42146;SDS011;27815;43.410;11.852;2023-01-04T16:32:54;426.20;;;41.47;;
42146;SDS011;27815;43.410;11.852;2023-01-04T16:36:58;367.83;;;41.22;;
42146;SDS011;27815;43.410;11.852;2023-01-04T16:41:02;245.43;;;29.88;;
42146;SDS011;27815;43.410;11.852;2023-01-04T16:45:06;235.13;;;26.92;;
42146;SDS011;27815;43.410;11.852;2023-01-04T16:49:10;210.70;;;27.80;;
42146;SDS011;27815;43.410;11.852;2023-01-04T16:53:17;163.98;;;24.73;;
42146;SDS011;27815;43.410;11.852;2023-01-04T16:57:20;395.30;;;46.10;;
42146;SDS011;27815;43.410;11.852;2023-01-04T17:01:23;276.67;;;35.60;;
42146;SDS011;27815;43.410;11.852;2023-01-04T17:05:31;99.20;;;32.60;;
42146;SDS011;27815;43.410;11.852;2023-01-04T17:09:39;210.02;;;38.55;;
42146;SDS011;27815;43.410;11.852;2023-01-04T17:13:42;85.97;;;27.10;;
42146;SDS011;27815;43.410;11.852;2023-01-04T17:17:45;97.68;;;28.08;;
42146;SDS011;27815;43.410;11.852;2023-01-04T17:21:48;64.97;;;24.75;;
42146;SDS011;27815;43.410;11.852;2023-01-04T17:25:51;117.70;;;29.13;;
42146;SDS011;27815;43.410;11.852;2023-01-04T17:29:55;184.40;;;33.38;;
42146;SDS011;27815;43.410;11.852;2023-01-04T17:33:58;213.48;;;32.95;;
42146;SDS011;27815;43.410;11.852;2023-01-04T17:38:02;132.45;;;32.75;;
42146;SDS011;27815;43.410;11.852;2023-01-04T17:42:05;116.63;;;31.48;;
42146;SDS011;27815;43.410;11.852;2023-01-04T17:46:12;88.82;;;27.10;;
42146;SDS011;27815;43.410;11.852;2023-01-04T17:50:23;89.50;;;26.58;;
42146;SDS011;27815;43.410;11.852;2023-01-04T17:54:26;83.65;;;28.00;;
42146;SDS011;27815;43.410;11.852;2023-01-04T17:58:30;116.20;;;30.10;;
42146;SDS011;27815;43.410;11.852;2023-01-04T18:02:33;204.40;;;29.55;;
42146;SDS011;27815;43.410;11.852;2023-01-04T18:06:37;138.65;;;25.33;;
42146;SDS011;27815;43.410;11.852;2023-01-04T18:10:40;121.15;;;26.02;;
42146;SDS011;27815;43.410;11.852;2023-01-04T18:15:03;166.75;;;28.80;;
42146;SDS011;27815;43.410;11.852;2023-01-04T18:19:07;174.43;;;32.10;;
42146;SDS011;27815;43.410;11.852;2023-01-04T18:23:10;227.88;;;37.20;;
42146;SDS011;27815;43.410;11.852;2023-01-04T18:27:25;315.45;;;51.47;;
42146;SDS011;27815;43.410;11.852;2023-01-04T18:31:28;255.98;;;45.20;;
42146;SDS011;27815;43.410;11.852;2023-01-04T18:35:32;194.45;;;31.55;;
42146;SDS011;27815;43.410;11.852;2023-01-04T18:39:36;219.80;;;34.10;;
42146;SDS011;27815;43.410;11.852;2023-01-04T18:43:39;64.13;;;26.00;;
42146;SDS011;27815;43.410;11.852;2023-01-04T18:48:00;91.60;;;24.90;;
42146;SDS011;27815;43.410;11.852;2023-01-04T18:52:03;104.22;;;27.58;;
42146;SDS011;27815;43.410;11.852;2023-01-04T18:56:06;70.05;;;20.65;;
42146;SDS011;27815;43.410;11.852;2023-01-04T19:00:09;84.53;;;23.10;;
42146;SDS011;27815;43.410;11.852;2023-01-04T19:04:13;66.63;;;21.45;;
42146;SDS011;27815;43.410;11.852;2023-01-04T19:08:17;61.38;;;23.13;;
42146;SDS011;27815;43.410;11.852;2023-01-04T19:12:20;96.00;;;26.85;;
42146;SDS011;27815;43.410;11.852;2023-01-04T19:16:23;106.05;;;29.00;;
42146;SDS011;27815;43.410;11.852;2023-01-04T19:20:34;123.22;;;29.00;;
42146;SDS011;27815;43.410;11.852;2023-01-04T19:24:40;174.18;;;34.10;;
42146;SDS011;27815;43.410;11.852;2023-01-04T19:28:44;155.80;;;29.48;;
42146;SDS011;27815;43.410;11.852;2023-01-04T19:32:46;224.95;;;34.20;;
42146;SDS011;27815;43.410;11.852;2023-01-04T19:36:49;202.88;;;41.83;;
42146;SDS011;27815;43.410;11.852;2023-01-04T19:40:55;219.43;;;43.08;;
42146;SDS011;27815;43.410;11.852;2023-01-04T19:44:59;317.23;;;51.25;;
42146;SDS011;27815;43.410;11.852;2023-01-04T19:49:03;340.02;;;48.53;;
42146;SDS011;27815;43.410;11.852;2023-01-04T19:53:15;258.67;;;44.75;;
42146;SDS011;27815;43.410;11.852;2023-01-04T19:57:18;298.42;;;49.50;;
42146;SDS011;27815;43.410;11.852;2023-01-04T20:01:21;194.25;;;39.83;;
42146;SDS011;27815;43.410;11.852;2023-01-04T20:05:25;242.10;;;39.10;;
42146;SDS011;27815;43.410;11.852;2023-01-04T20:09:27;212.60;;;38.38;;
42146;SDS011;27815;43.410;11.852;2023-01-04T20:13:33;254.00;;;40.75;;
42146;SDS011;27815;43.410;11.852;2023-01-04T20:17:36;244.82;;;39.53;;
42146;SDS011;27815;43.410;11.852;2023-01-04T20:21:39;303.30;;;42.80;;
42146;SDS011;27815;43.410;11.852;2023-01-04T20:25:43;270.98;;;41.05;;
42146;SDS011;27815;43.410;11.852;2023-01-04T20:29:48;192.87;;;34.37;;
42146;SDS011;27815;43.410;11.852;2023-01-04T20:33:51;335.08;;;43.33;;
42146;SDS011;27815;43.410;11.852;2023-01-04T20:37:54;361.20;;;48.08;;
42146;SDS011;27815;43.410;11.852;2023-01-04T20:42:00;339.95;;;41.85;;
42146;SDS011;27815;43.410;11.852;2023-01-04T20:46:24;358.50;;;47.40;;
42146;SDS011;27815;43.410;11.852;2023-01-04T20:54:33;168.27;;;31.17;;
42146;SDS011;27815;43.410;11.852;2023-01-04T20:58:37;124.10;;;30.38;;
42146;SDS011;27815;43.410;11.852;2023-01-04T21:02:39;100.10;;;30.17;;
42146;SDS011;27815;43.410;11.852;2023-01-04T21:06:43;201.27;;;35.50;;
42146;SDS011;27815;43.410;11.852;2023-01-04T21:10:46;84.78;;;27.15;;
42146;SDS011;27815;43.410;11.852;2023-01-04T21:14:49;358.55;;;40.90;;
42146;SDS011;27815;43.410;11.852;2023-01-04T21:18:52;360.65;;;41.45;;
42146;SDS011;27815;43.410;11.852;2023-01-04T21:22:55;283.67;;;38.88;;
42146;SDS011;27815;43.410;11.852;2023-01-04T21:26:59;338.10;;;44.33;;
42146;SDS011;27815;43.410;11.852;2023-01-04T21:31:14;226.70;;;38.17;;
42146;SDS011;27815;43.410;11.852;2023-01-04T21:39:22;323.20;;;47.45;;
42146;SDS011;27815;43.410;11.852;2023-01-04T21:43:25;336.42;;;46.83;;
42146;SDS011;27815;43.410;11.852;2023-01-04T21:47:31;313.55;;;44.80;;
42146;SDS011;27815;43.410;11.852;2023-01-04T21:55:37;231.25;;;34.13;;
42146;SDS011;27815;43.410;11.852;2023-01-04T21:59:40;274.85;;;40.22;;
42146;SDS011;27815;43.410;11.852;2023-01-04T22:03:43;304.10;;;40.42;;
42146;SDS011;27815;43.410;11.852;2023-01-04T22:07:46;204.23;;;34.05;;
42146;SDS011;27815;43.410;11.852;2023-01-04T22:11:49;183.20;;;33.80;;
42146;SDS011;27815;43.410;11.852;2023-01-04T22:15:53;331.35;;;39.25;;
42146;SDS011;27815;43.410;11.852;2023-01-04T22:19:55;262.02;;;40.47;;
42146;SDS011;27815;43.410;11.852;2023-01-04T22:23:58;439.08;;;50.60;;
42146;SDS011;27815;43.410;11.852;2023-01-04T22:28:01;331.30;;;45.33;;
42146;SDS011;27815;43.410;11.852;2023-01-04T22:32:04;216.85;;;35.53;;
42146;SDS011;27815;43.410;11.852;2023-01-04T22:36:09;202.18;;;35.50;;
42146;SDS011;27815;43.410;11.852;2023-01-04T22:40:23;236.48;;;34.15;;
42146;SDS011;27815;43.410;11.852;2023-01-04T22:44:26;208.65;;;34.08;;
42146;SDS011;27815;43.410;11.852;2023-01-04T22:48:29;204.25;;;34.92;;
42146;SDS011;27815;43.410;11.852;2023-01-04T22:52:32;273.80;;;36.00;;
42146;SDS011;27815;43.410;11.852;2023-01-04T22:56:35;205.50;;;33.80;;
42146;SDS011;27815;43.410;11.852;2023-01-04T23:00:37;364.30;;;43.17;;
42146;SDS011;27815;43.410;11.852;2023-01-04T23:04:40;226.38;;;34.10;;
42146;SDS011;27815;43.410;11.852;2023-01-04T23:08:43;213.88;;;35.08;;
42146;SDS011;27815;43.410;11.852;2023-01-04T23:12:46;318.55;;;37.88;;
42146;SDS011;27815;43.410;11.852;2023-01-04T23:16:49;241.25;;;34.78;;
42146;SDS011;27815;43.410;11.852;2023-01-04T23:20:52;88.93;;;23.25;;
42146;SDS011;27815;43.410;11.852;2023-01-04T23:24:56;228.43;;;36.08;;
42146;SDS011;27815;43.410;11.852;2023-01-04T23:28:59;246.60;;;33.72;;
42146;SDS011;27815;43.410;11.852;2023-01-04T23:33:02;177.48;;;29.65;;
42146;SDS011;27815;43.410;11.852;2023-01-04T23:37:05;184.40;;;33.08;;
42146;SDS011;27815;43.410;11.852;2023-01-04T23:41:08;206.57;;;33.67;;
42146;SDS011;27815;43.410;11.852;2023-01-04T23:45:12;254.80;;;34.55;;
42146;SDS011;27815;43.410;11.852;2023-01-04T23:49:14;217.93;;;31.45;;
42146;SDS011;27815;43.410;11.852;2023-01-04T23:53:17;195.15;;;29.20;;
42146;SDS011;27815;43.410;11.852;2023-01-04T23:57:20;272.25;;;33.83;;
